createdAt,value
2019-02-25T00:00:31.007Z,27.30
2019-02-25T00:01:37.238Z,26.93
2019-02-25T00:02:41.579Z,27.07
2019-02-25T00:03:45.942Z,27.40
2019-02-25T00:04:50.219Z,28.23
2019-02-25T00:05:54.567Z,28.20
2019-02-25T00:06:58.873Z,29.00
2019-02-25T00:08:03.151Z,27.77
2019-02-25T00:09:07.794Z,28.00
2019-02-25T00:10:12.156Z,27.97
2019-02-25T00:11:16.426Z,28.97
2019-02-25T00:12:20.723Z,28.93
2019-02-25T00:13:24.999Z,29.07
2019-02-25T00:14:29.270Z,29.03
2019-02-25T00:15:33.606Z,28.70
2019-02-25T00:16:37.899Z,29.27
2019-02-25T00:17:42.187Z,28.57
2019-02-25T00:18:46.487Z,28.67
2019-02-25T00:19:50.760Z,29.20
2019-02-25T00:20:55.052Z,30.13
2019-02-25T00:21:59.338Z,29.60
2019-02-25T00:23:03.699Z,29.77
2019-02-25T00:24:08.016Z,29.43
2019-02-25T00:25:13.011Z,30.50
2019-02-25T00:26:17.294Z,30.43
2019-02-25T00:27:21.628Z,30.90
2019-02-25T00:28:25.942Z,30.17
2019-02-25T00:29:30.215Z,30.70
2019-02-25T00:30:34.579Z,30.77
2019-02-25T00:31:38.863Z,32.20
2019-02-25T00:32:43.143Z,31.27
2019-02-25T00:33:47.487Z,31.90
2019-02-25T00:34:51.857Z,32.60
2019-02-25T00:35:56.153Z,32.27
2019-02-25T00:37:00.435Z,31.47
2019-02-25T00:38:04.775Z,31.97
2019-02-25T00:39:09.572Z,32.17
2019-02-25T00:40:14.218Z,32.80
2019-02-25T00:41:18.494Z,32.87
2019-02-25T00:42:22.780Z,32.43
2019-02-25T00:43:27.047Z,33.00
2019-02-25T00:44:31.402Z,32.60
2019-02-25T00:45:35.755Z,32.10
2019-02-25T00:46:40.046Z,33.70
2019-02-25T00:47:44.414Z,33.60
2019-02-25T00:48:48.679Z,33.43
2019-02-25T00:49:53.022Z,32.60
2019-02-25T00:50:57.302Z,33.83
2019-02-25T00:52:01.575Z,34.07
2019-02-25T00:53:05.949Z,35.13
2019-02-25T00:54:10.224Z,33.97
2019-02-25T00:55:15.866Z,33.50
2019-02-25T00:56:20.138Z,33.47
2019-02-25T00:57:24.429Z,33.37
2019-02-25T00:58:28.711Z,33.40
2019-02-25T00:59:32.982Z,35.00
2019-02-25T01:00:37.250Z,34.33
2019-02-25T01:01:41.514Z,34.27
2019-02-25T01:02:45.934Z,34.87
2019-02-25T01:03:50.221Z,34.93
2019-02-25T01:04:54.525Z,34.80
2019-02-25T01:05:58.795Z,35.23
2019-02-25T01:07:03.891Z,36.13
2019-02-25T01:08:08.176Z,34.23
2019-02-25T01:09:12.587Z,34.67
2019-02-25T01:10:17.746Z,34.77
2019-02-25T01:11:22.003Z,36.03
2019-02-25T01:12:26.343Z,36.70
2019-02-25T01:13:30.699Z,35.27
2019-02-25T01:14:34.986Z,36.00
2019-02-25T01:15:39.250Z,34.67
2019-02-25T01:16:43.522Z,36.03
2019-02-25T01:17:47.794Z,35.13
2019-02-25T01:18:52.097Z,35.07
2019-02-25T01:19:56.434Z,34.10
2019-02-25T01:21:00.784Z,34.70
2019-02-25T01:22:05.214Z,36.40
2019-02-25T01:23:09.482Z,35.97
2019-02-25T01:24:13.975Z,35.37
2019-02-25T01:25:18.373Z,35.43
2019-02-25T01:26:22.639Z,36.63
2019-02-25T01:27:26.911Z,36.47
2019-02-25T01:28:31.213Z,35.13
2019-02-25T01:29:35.470Z,34.97
2019-02-25T01:30:39.747Z,35.83
2019-02-25T01:31:44.042Z,34.93
2019-02-25T01:32:48.375Z,36.50
2019-02-25T01:33:52.666Z,35.67
2019-02-25T01:34:56.944Z,36.03
2019-02-25T01:36:01.210Z,35.83
2019-02-25T01:37:05.482Z,35.23
2019-02-25T01:38:09.755Z,35.10
2019-02-25T01:39:14.030Z,36.17
2019-02-25T01:40:18.300Z,34.87
2019-02-25T01:41:22.586Z,35.90
2019-02-25T01:42:26.876Z,36.23
2019-02-25T01:43:31.143Z,34.57
2019-02-25T01:44:35.410Z,35.33
2019-02-25T01:45:39.706Z,36.23
2019-02-25T01:46:43.967Z,36.83
2019-02-25T01:47:48.261Z,36.40
2019-02-25T01:48:52.546Z,34.83
2019-02-25T01:49:56.814Z,36.03
2019-02-25T01:51:01.101Z,36.87
2019-02-25T01:52:05.454Z,36.07
2019-02-25T01:53:09.746Z,35.90
2019-02-25T01:54:14.026Z,35.83
2019-02-25T01:55:18.299Z,35.07
2019-02-25T01:56:22.579Z,36.23
2019-02-25T01:57:26.875Z,36.13
2019-02-25T01:58:31.138Z,35.97
2019-02-25T01:59:35.426Z,36.33
2019-02-25T02:00:39.710Z,36.87
2019-02-25T02:01:43.966Z,35.50
2019-02-25T02:02:48.266Z,36.00
2019-02-25T02:03:52.546Z,36.80
2019-02-25T02:04:56.838Z,35.73
2019-02-25T02:06:01.131Z,35.83
2019-02-25T02:07:05.430Z,36.33
2019-02-25T02:08:09.691Z,37.00
2019-02-25T02:09:13.970Z,36.17
2019-02-25T02:10:18.508Z,35.57
2019-02-25T02:11:22.743Z,36.67
2019-02-25T02:12:26.995Z,36.07
2019-02-25T02:13:31.250Z,35.27
2019-02-25T02:14:35.503Z,35.50
2019-02-25T02:15:39.754Z,36.07
2019-02-25T02:16:44.001Z,36.77
2019-02-25T02:17:48.391Z,35.73
2019-02-25T02:18:52.654Z,36.30
2019-02-25T02:19:56.922Z,36.57
2019-02-25T02:21:01.163Z,36.83
2019-02-25T02:22:05.478Z,35.10
2019-02-25T02:23:09.722Z,36.13
2019-02-25T02:24:13.966Z,36.23
2019-02-25T02:25:18.226Z,36.47
2019-02-25T02:26:22.471Z,36.03
2019-02-25T02:27:26.718Z,36.33
2019-02-25T02:28:30.966Z,36.23
2019-02-25T02:29:35.222Z,37.13
2019-02-25T02:30:39.470Z,35.83
2019-02-25T02:31:43.714Z,36.90
2019-02-25T02:32:48.108Z,36.47
2019-02-25T02:33:52.349Z,36.90
2019-02-25T02:34:56.607Z,36.77
2019-02-25T02:36:00.858Z,35.90
2019-02-25T02:37:05.113Z,36.37
2019-02-25T02:38:09.562Z,37.03
2019-02-25T02:39:13.806Z,36.30
2019-02-25T02:40:18.139Z,36.47
2019-02-25T02:41:22.389Z,35.53
2019-02-25T02:42:26.638Z,35.87
2019-02-25T02:43:30.896Z,37.00
2019-02-25T02:44:35.147Z,35.13
2019-02-25T02:45:43.114Z,36.27
2019-02-25T02:47:05.509Z,35.93
2019-02-25T02:48:15.939Z,36.43
2019-02-25T02:49:20.183Z,35.67
2019-02-25T02:50:25.808Z,36.33
2019-02-25T02:51:30.135Z,36.43
2019-02-25T02:52:34.395Z,36.27
2019-02-25T02:53:38.638Z,36.10
2019-02-25T02:54:42.962Z,35.63
2019-02-25T02:55:47.219Z,36.50
2019-02-25T02:56:51.466Z,35.83
2019-02-25T02:57:55.722Z,36.33
2019-02-25T02:58:59.971Z,35.17
2019-02-25T03:00:06.895Z,37.03
2019-02-25T03:01:11.161Z,36.77
2019-02-25T03:02:15.420Z,35.93
2019-02-25T03:03:19.660Z,36.20
2019-02-25T03:04:23.902Z,35.90
2019-02-25T03:05:28.165Z,35.17
2019-02-25T03:06:32.419Z,36.80
2019-02-25T03:07:36.654Z,36.03
2019-02-25T03:08:40.910Z,36.17
2019-02-25T03:09:45.153Z,35.60
2019-02-25T03:10:49.418Z,35.67
2019-02-25T03:11:53.667Z,36.17
2019-02-25T03:12:57.911Z,35.20
2019-02-25T03:14:02.174Z,36.23
2019-02-25T03:15:08.631Z,37.30
2019-02-25T03:16:12.959Z,36.70
2019-02-25T03:17:17.211Z,36.33
2019-02-25T03:18:21.463Z,37.10
2019-02-25T03:19:25.724Z,37.07
2019-02-25T03:20:29.971Z,35.83
2019-02-25T03:21:34.215Z,36.37
2019-02-25T03:22:38.466Z,36.67
2019-02-25T03:23:42.716Z,36.77
2019-02-25T03:24:46.962Z,37.07
2019-02-25T03:25:51.227Z,36.23
2019-02-25T03:26:55.474Z,37.17
2019-02-25T03:27:59.802Z,37.73
2019-02-25T03:29:04.059Z,37.23
2019-02-25T03:30:13.716Z,37.47
2019-02-25T03:31:17.977Z,35.93
2019-02-25T03:32:22.303Z,36.23
2019-02-25T03:33:26.556Z,37.83
2019-02-25T03:34:30.788Z,37.83
2019-02-25T03:35:35.042Z,37.47
2019-02-25T03:36:39.311Z,37.47
2019-02-25T03:37:43.701Z,36.57
2019-02-25T03:38:47.938Z,36.63
2019-02-25T03:39:52.178Z,37.53
2019-02-25T03:40:56.439Z,36.57
2019-02-25T03:42:00.685Z,36.97
2019-02-25T03:43:04.937Z,37.50
2019-02-25T03:44:09.186Z,37.97
2019-02-25T03:45:14.867Z,38.23
2019-02-25T03:46:19.122Z,37.80
2019-02-25T03:47:23.374Z,36.73
2019-02-25T03:48:27.623Z,37.77
2019-02-25T03:49:31.874Z,37.40
2019-02-25T03:50:36.123Z,36.73
2019-02-25T03:51:40.386Z,36.77
2019-02-25T03:52:44.654Z,37.07
2019-02-25T03:53:48.911Z,37.03
2019-02-25T03:54:53.234Z,36.20
2019-02-25T03:55:57.561Z,36.63
2019-02-25T03:57:02.271Z,37.10
2019-02-25T03:58:06.522Z,37.90
2019-02-25T03:59:10.770Z,38.07
2019-02-25T04:00:17.059Z,36.47
2019-02-25T04:01:21.314Z,36.10
2019-02-25T04:02:25.566Z,37.43
2019-02-25T04:03:29.994Z,36.40
2019-02-25T04:04:34.236Z,36.97
2019-02-25T04:05:38.501Z,37.57
2019-02-25T04:06:42.762Z,36.47
2019-02-25T04:07:47.158Z,36.93
2019-02-25T04:08:51.473Z,38.53
2019-02-25T04:09:55.734Z,37.83
2019-02-25T04:10:59.973Z,37.57
2019-02-25T04:12:04.391Z,38.23
2019-02-25T04:13:08.630Z,37.57
2019-02-25T04:14:12.884Z,37.53
2019-02-25T04:15:20.211Z,36.33
2019-02-25T04:16:24.549Z,37.93
2019-02-25T04:17:28.870Z,37.10
2019-02-25T04:18:33.116Z,35.80
2019-02-25T04:19:37.358Z,37.57
2019-02-25T04:20:41.618Z,37.53
2019-02-25T04:21:45.883Z,36.93
2019-02-25T04:22:50.127Z,37.27
2019-02-25T04:23:54.419Z,37.20
2019-02-25T04:24:58.691Z,37.00
2019-02-25T04:26:02.940Z,36.57
2019-02-25T04:27:07.190Z,36.20
2019-02-25T04:28:11.443Z,37.30
2019-02-25T04:29:15.692Z,36.53
2019-02-25T04:30:20.006Z,37.17
2019-02-25T04:31:24.262Z,36.70
2019-02-25T04:32:28.519Z,35.90
2019-02-25T04:33:32.762Z,36.37
2019-02-25T04:34:37.011Z,36.60
2019-02-25T04:35:41.272Z,36.33
2019-02-25T04:36:45.540Z,37.40
2019-02-25T04:37:49.784Z,36.27
2019-02-25T04:38:54.030Z,36.00
2019-02-25T04:39:58.292Z,36.43
2019-02-25T04:41:02.542Z,36.47
2019-02-25T04:42:06.806Z,36.23
2019-02-25T04:43:11.050Z,36.47
2019-02-25T04:44:15.299Z,36.33
2019-02-25T04:45:19.571Z,37.37
2019-02-25T04:46:23.823Z,38.57
2019-02-25T04:47:29.063Z,37.67
2019-02-25T04:48:33.313Z,36.87
2019-02-25T04:49:37.559Z,36.23
2019-02-25T04:50:41.810Z,36.70
2019-02-25T04:51:46.064Z,37.73
2019-02-25T04:52:50.328Z,37.27
2019-02-25T04:53:54.566Z,36.23
2019-02-25T04:54:58.836Z,35.53
2019-02-25T04:56:03.077Z,35.70
2019-02-25T04:57:07.340Z,35.70
2019-02-25T04:58:11.597Z,35.53
2019-02-25T04:59:15.846Z,36.97
2019-02-25T05:00:20.196Z,36.40
2019-02-25T05:01:24.443Z,35.37
2019-02-25T05:02:28.709Z,34.67
2019-02-25T05:03:32.960Z,35.37
2019-02-25T05:04:37.211Z,34.80
2019-02-25T05:05:41.471Z,35.27
2019-02-25T05:06:45.723Z,35.40
2019-02-25T05:07:49.996Z,34.53
2019-02-25T05:08:54.232Z,35.77
2019-02-25T05:09:58.495Z,34.93
2019-02-25T05:11:02.739Z,36.07
2019-02-25T05:12:06.992Z,34.00
2019-02-25T05:13:11.244Z,34.97
2019-02-25T05:14:15.492Z,34.07
2019-02-25T05:15:21.748Z,35.40
2019-02-25T05:16:25.987Z,33.43
2019-02-25T05:17:30.240Z,34.33
2019-02-25T05:18:34.528Z,33.77
2019-02-25T05:19:38.852Z,33.97
2019-02-25T05:20:43.088Z,34.07
2019-02-25T05:21:47.335Z,34.20
2019-02-25T05:22:51.584Z,34.40
2019-02-25T05:23:55.831Z,34.27
2019-02-25T05:25:00.470Z,34.03
2019-02-25T05:26:04.889Z,34.83
2019-02-25T05:27:09.134Z,34.53
2019-02-25T05:28:13.390Z,34.80
2019-02-25T05:29:17.648Z,33.93
2019-02-25T05:30:21.895Z,34.60
2019-02-25T05:31:26.147Z,34.63
2019-02-25T05:32:30.392Z,33.10
2019-02-25T05:33:34.654Z,34.40
2019-02-25T05:34:38.899Z,33.93
2019-02-25T05:35:43.147Z,33.87
2019-02-25T05:36:47.392Z,33.90
2019-02-25T05:37:51.649Z,34.00
2019-02-25T05:38:55.912Z,32.97
2019-02-25T05:40:00.271Z,33.40
2019-02-25T05:41:04.486Z,32.33
2019-02-25T05:42:08.747Z,32.27
2019-02-25T05:43:12.999Z,32.53
2019-02-25T05:44:17.254Z,32.37
2019-02-25T05:45:21.589Z,31.70
2019-02-25T05:46:25.830Z,32.23
2019-02-25T05:47:30.079Z,32.17
2019-02-25T05:48:34.340Z,31.60
2019-02-25T05:49:38.606Z,31.90
2019-02-25T05:50:42.849Z,31.27
2019-02-25T05:51:47.106Z,31.33
2019-02-25T05:52:51.433Z,32.10
2019-02-25T05:53:55.696Z,31.80
2019-02-25T05:54:59.948Z,32.13
2019-02-25T05:56:04.269Z,31.27
2019-02-25T05:57:08.517Z,30.40
2019-02-25T05:58:12.763Z,30.80
2019-02-25T05:59:17.023Z,30.63
2019-02-25T06:00:23.265Z,31.13
2019-02-25T06:01:27.511Z,29.23
2019-02-25T06:02:31.764Z,30.70
2019-02-25T06:03:36.039Z,31.03
2019-02-25T06:04:40.294Z,31.07
2019-02-25T06:05:44.556Z,30.90
2019-02-25T06:06:48.805Z,31.67
2019-02-25T06:07:53.145Z,31.40
2019-02-25T06:08:57.387Z,29.90
2019-02-25T06:10:01.638Z,28.93
2019-02-25T06:11:05.874Z,30.40
2019-02-25T06:12:10.170Z,31.33
2019-02-25T06:13:14.419Z,30.90
2019-02-25T06:14:18.682Z,30.93
2019-02-25T06:15:22.929Z,30.27
2019-02-25T06:16:27.176Z,30.30
2019-02-25T06:17:31.432Z,29.80
2019-02-25T06:18:35.687Z,30.30
2019-02-25T06:19:39.942Z,29.63
2019-02-25T06:20:44.199Z,30.40
2019-02-25T06:21:48.435Z,30.07
2019-02-25T06:22:52.688Z,29.73
2019-02-25T06:23:56.933Z,30.23
2019-02-25T06:25:01.194Z,30.53
2019-02-25T06:26:05.443Z,30.10
2019-02-25T06:27:09.703Z,30.43
2019-02-25T06:28:13.950Z,30.00
2019-02-25T06:29:18.199Z,30.43
2019-02-25T06:30:22.618Z,31.40
2019-02-25T06:31:26.876Z,29.90
2019-02-25T06:32:31.123Z,30.00
2019-02-25T06:33:35.370Z,28.73
2019-02-25T06:34:39.613Z,29.90
2019-02-25T06:35:43.875Z,29.43
2019-02-25T06:36:48.127Z,30.03
2019-02-25T06:37:52.538Z,29.20
2019-02-25T06:38:56.803Z,30.10
2019-02-25T06:40:01.055Z,29.40
2019-02-25T06:41:05.310Z,28.27
2019-02-25T06:42:09.562Z,28.17
2019-02-25T06:43:13.915Z,29.20
2019-02-25T06:44:18.226Z,28.80
2019-02-25T06:45:22.715Z,29.23
2019-02-25T06:46:26.980Z,29.07
2019-02-25T06:47:31.222Z,27.83
2019-02-25T06:48:35.457Z,29.20
2019-02-25T06:49:39.711Z,28.73
2019-02-25T06:50:43.973Z,28.83
2019-02-25T06:51:48.290Z,27.87
2019-02-25T06:52:52.566Z,28.60
2019-02-25T06:53:56.819Z,27.73
2019-02-25T06:55:01.078Z,28.97
2019-02-25T06:56:05.342Z,28.77
2019-02-25T06:57:09.612Z,28.80
2019-02-25T06:58:13.849Z,29.67
2019-02-25T06:59:18.115Z,27.97
2019-02-25T07:00:22.427Z,27.40
2019-02-25T07:01:26.690Z,27.07
2019-02-25T07:02:30.938Z,27.97
2019-02-25T07:03:35.187Z,28.33
2019-02-25T07:04:58.544Z,27.50
2019-02-25T07:06:22.138Z,28.70
2019-02-25T07:07:48.804Z,27.47
2019-02-25T07:09:18.335Z,27.83
2019-02-25T07:10:40.395Z,26.67
2019-02-25T07:11:50.998Z,26.90
2019-02-25T07:13:12.954Z,27.07
2019-02-25T07:14:36.298Z,26.93
2019-02-25T07:16:07.078Z,27.37
2019-02-25T07:17:39.378Z,27.60
2019-02-25T07:19:05.739Z,26.67
2019-02-25T07:20:31.932Z,27.13
2019-02-25T07:21:44.243Z,27.53
2019-02-25T07:22:58.638Z,26.13
2019-02-25T07:24:20.744Z,26.43
2019-02-25T07:25:37.283Z,27.43
2019-02-25T07:27:00.654Z,27.23
2019-02-25T07:28:22.686Z,27.60
2019-02-25T07:29:49.166Z,26.33
2019-02-25T07:31:04.803Z,28.37
2019-02-25T07:32:24.980Z,27.20
2019-02-25T07:33:51.346Z,26.80
2019-02-25T07:35:01.046Z,26.43
2019-02-25T07:36:16.363Z,27.87
2019-02-25T07:37:48.779Z,26.80
2019-02-25T07:39:24.184Z,27.70
2019-02-25T07:40:39.359Z,27.53
2019-02-25T07:42:03.438Z,27.10
2019-02-25T07:43:18.887Z,26.87
2019-02-25T07:44:31.043Z,26.90
2019-02-25T07:45:54.388Z,27.47
2019-02-25T07:47:07.511Z,26.20
2019-02-25T07:48:27.871Z,26.37
2019-02-25T07:49:48.982Z,25.97
2019-02-25T07:51:05.025Z,26.07
2019-02-25T07:52:21.031Z,27.33
2019-02-25T07:53:37.583Z,25.70
2019-02-25T07:54:52.498Z,26.53
2019-02-25T07:56:21.910Z,26.50
2019-02-25T07:57:45.272Z,25.13
2019-02-25T07:59:20.875Z,25.50
2019-02-25T08:00:31.340Z,26.43
2019-02-25T08:01:48.123Z,26.07
2019-02-25T08:03:08.783Z,25.20
2019-02-25T08:04:50.137Z,25.67
2019-02-25T08:06:03.415Z,24.97
2019-02-25T08:07:25.185Z,24.67
2019-02-25T08:08:54.933Z,24.57
2019-02-25T08:10:05.747Z,24.40
2019-02-25T08:11:33.818Z,24.47
2019-02-25T08:12:45.034Z,25.07
2019-02-25T08:13:56.738Z,24.60
2019-02-25T08:15:17.802Z,25.23
2019-02-25T08:16:31.804Z,24.53
2019-02-25T08:17:53.810Z,25.20
2019-02-25T08:19:10.518Z,24.60
2019-02-25T08:20:46.130Z,24.53
2019-02-25T08:22:22.881Z,25.10
2019-02-25T08:23:34.498Z,23.80
2019-02-25T08:25:03.966Z,23.63
2019-02-25T08:26:25.283Z,24.13
2019-02-25T08:27:51.710Z,24.50
2019-02-25T08:29:17.699Z,25.87
2019-02-25T08:30:37.012Z,24.10
2019-02-25T08:32:09.679Z,24.18
2019-02-25T08:33:24.218Z,24.23
2019-02-25T08:34:42.414Z,24.30
2019-02-25T08:36:28.015Z,24.47
2019-02-25T08:38:04.315Z,24.30
2019-02-25T08:39:17.611Z,25.40
2019-02-25T08:40:59.989Z,24.43
2019-02-25T08:42:23.182Z,24.37
2019-02-25T08:43:34.492Z,24.03
2019-02-25T08:45:00.924Z,24.40
2019-02-25T08:46:24.898Z,24.52
2019-02-25T08:47:34.131Z,24.93
2019-02-25T08:48:43.390Z,24.53
2019-02-25T08:50:15.702Z,24.67
2019-02-25T08:51:19.947Z,24.12
2019-02-25T08:52:24.282Z,24.07
2019-02-25T08:53:29.901Z,24.43
2019-02-25T08:54:34.427Z,24.43
2019-02-25T08:55:38.687Z,24.75
2019-02-25T08:56:42.988Z,23.70
2019-02-25T08:57:47.679Z,24.43
2019-02-25T08:58:51.979Z,23.77
2019-02-25T08:59:56.280Z,24.10
2019-02-25T09:01:00.605Z,24.72
2019-02-25T09:02:04.934Z,24.18
2019-02-25T09:03:09.254Z,23.98
2019-02-25T09:04:13.563Z,25.00
2019-02-25T09:05:17.819Z,24.77
2019-02-25T09:06:22.084Z,24.85
2019-02-25T09:07:27.354Z,24.40
2019-02-25T09:08:31.690Z,24.00
2019-02-25T09:09:36.211Z,24.55
2019-02-25T09:10:40.455Z,24.80
2019-02-25T09:11:44.720Z,24.00
2019-02-25T09:12:49.035Z,24.70
2019-02-25T09:13:53.323Z,23.73
2019-02-25T09:14:57.578Z,24.00
2019-02-25T09:16:01.832Z,24.47
2019-02-25T09:17:06.163Z,23.85
2019-02-25T09:18:10.494Z,23.35
2019-02-25T09:19:14.759Z,24.52
2019-02-25T09:20:19.007Z,24.43
2019-02-25T09:21:31.433Z,23.98
2019-02-25T09:22:29.190Z,23.55
2019-02-25T09:23:33.438Z,24.15
2019-02-25T09:24:37.694Z,24.72
2019-02-25T09:25:41.949Z,23.70
2019-02-25T09:26:46.270Z,23.57
2019-02-25T09:27:50.518Z,24.15
2019-02-25T09:28:54.786Z,24.00
2019-02-25T09:29:59.126Z,23.65
2019-02-25T09:31:05.538Z,23.32
2019-02-25T09:32:09.427Z,24.35
2019-02-25T09:33:13.695Z,23.65
2019-02-25T09:34:17.970Z,24.20
2019-02-25T09:35:22.234Z,24.00
2019-02-25T09:36:26.487Z,23.83
2019-02-25T09:37:30.750Z,23.50
2019-02-25T09:38:34.995Z,24.07
2019-02-25T09:39:39.278Z,24.00
2019-02-25T09:40:43.606Z,23.75
2019-02-25T09:41:47.864Z,23.87
2019-02-25T09:42:52.110Z,23.60
2019-02-25T09:43:56.359Z,23.75
2019-02-25T09:45:00.628Z,23.38
2019-02-25T09:46:04.874Z,24.77
2019-02-25T09:47:09.131Z,24.40
2019-02-25T09:48:13.378Z,25.27
2019-02-25T09:49:17.630Z,23.80
2019-02-25T09:50:21.903Z,24.40
2019-02-25T09:51:26.164Z,23.85
2019-02-25T09:52:30.410Z,24.25
2019-02-25T09:53:34.659Z,23.35
2019-02-25T09:54:38.912Z,24.50
2019-02-25T09:55:43.171Z,24.27
2019-02-25T09:56:47.427Z,23.42
2019-02-25T09:57:51.690Z,23.47
2019-02-25T09:58:55.956Z,23.92
2019-02-25T10:00:00.262Z,24.32
2019-02-25T10:01:05.689Z,23.92
2019-02-25T10:02:10.011Z,23.85
2019-02-25T10:03:14.267Z,23.57
2019-02-25T10:04:19.753Z,23.47
2019-02-25T10:05:24.002Z,24.00
2019-02-25T10:06:28.749Z,23.57
2019-02-25T10:07:33.003Z,22.98
2019-02-25T10:08:37.266Z,23.25
2019-02-25T10:09:41.579Z,24.37
2019-02-25T10:10:45.853Z,23.75
2019-02-25T10:11:50.098Z,24.55
2019-02-25T10:12:54.354Z,22.82
2019-02-25T10:13:58.603Z,22.58
2019-02-25T10:15:02.850Z,23.12
2019-02-25T10:16:07.120Z,22.55
2019-02-25T10:17:11.460Z,23.18
2019-02-25T10:18:15.709Z,22.67
2019-02-25T10:19:19.946Z,22.60
2019-02-25T10:20:24.323Z,22.85
2019-02-25T10:21:28.589Z,23.27
2019-02-25T10:22:32.893Z,22.58
2019-02-25T10:23:37.179Z,22.98
2019-02-25T10:24:41.431Z,24.15
2019-02-25T10:25:45.729Z,23.70
2019-02-25T10:26:50.051Z,23.75
2019-02-25T10:27:54.299Z,23.95
2019-02-25T10:28:58.542Z,23.45
2019-02-25T10:30:04.124Z,23.80
2019-02-25T10:31:08.474Z,23.02
2019-02-25T10:32:12.727Z,23.05
2019-02-25T10:33:16.982Z,22.35
2019-02-25T10:34:21.247Z,23.07
2019-02-25T10:35:27.075Z,23.10
2019-02-25T10:36:31.527Z,22.00
2019-02-25T10:37:36.302Z,23.20
2019-02-25T10:38:41.723Z,22.65
2019-02-25T10:39:47.382Z,22.35
2019-02-25T10:40:53.791Z,21.30
2019-02-25T10:41:59.506Z,22.98
2019-02-25T10:43:03.900Z,23.32
2019-02-25T10:44:08.474Z,21.40
2019-02-25T10:45:14.814Z,22.58
2019-02-25T10:46:19.074Z,22.42
2019-02-25T10:47:23.329Z,22.10
2019-02-25T10:48:27.590Z,22.13
2019-02-25T10:49:33.572Z,22.15
2019-02-25T10:50:38.658Z,23.05
2019-02-25T10:51:45.540Z,21.20
2019-02-25T10:52:49.930Z,21.55
2019-02-25T10:53:54.199Z,21.00
2019-02-25T10:54:58.502Z,21.87
2019-02-25T10:56:07.139Z,22.80
2019-02-25T10:57:21.328Z,22.22
2019-02-25T10:58:27.045Z,20.67
2019-02-25T10:59:32.218Z,21.87
2019-02-25T11:00:39.419Z,21.23
2019-02-25T11:01:45.354Z,21.33
2019-02-25T11:02:51.261Z,21.73
2019-02-25T11:03:55.640Z,21.93
2019-02-25T11:04:59.902Z,21.68
2019-02-25T11:06:04.356Z,22.40
2019-02-25T11:07:09.660Z,22.73
2019-02-25T11:08:15.454Z,20.90
2019-02-25T11:09:31.133Z,21.77
2019-02-25T11:10:37.895Z,22.17
2019-02-25T11:11:42.187Z,21.35
2019-02-25T11:12:46.511Z,22.48
2019-02-25T11:13:50.761Z,20.97
2019-02-25T11:14:55.015Z,21.48
2019-02-25T11:15:59.418Z,21.95
2019-02-25T11:17:04.134Z,20.57
2019-02-25T11:18:08.659Z,21.37
2019-02-25T11:19:12.924Z,20.35
2019-02-25T11:20:17.246Z,20.95
2019-02-25T11:21:21.494Z,21.90
2019-02-25T11:22:25.778Z,20.43
2019-02-25T11:23:30.051Z,20.62
2019-02-25T11:24:34.370Z,20.85
2019-02-25T11:25:38.707Z,20.77
2019-02-25T11:26:42.979Z,21.77
2019-02-25T11:27:47.222Z,20.97
2019-02-25T11:28:51.557Z,20.97
2019-02-25T11:29:55.811Z,20.87
2019-02-25T11:31:00.055Z,21.42
2019-02-25T11:32:04.880Z,20.73
2019-02-25T11:33:09.129Z,20.60
2019-02-25T11:34:13.518Z,20.85
2019-02-25T11:35:17.779Z,20.40
2019-02-25T11:36:22.169Z,21.57
2019-02-25T11:37:27.057Z,21.80
2019-02-25T11:38:36.682Z,21.37
2019-02-25T11:39:37.509Z,21.27
2019-02-25T11:40:41.750Z,21.35
2019-02-25T11:41:46.012Z,21.23
2019-02-25T11:42:50.950Z,21.05
2019-02-25T11:43:55.392Z,20.05
2019-02-25T11:45:01.593Z,21.20
2019-02-25T11:46:05.634Z,20.80
2019-02-25T11:47:10.174Z,20.40
2019-02-25T11:48:14.583Z,19.77
2019-02-25T11:49:18.846Z,21.10
2019-02-25T11:50:23.184Z,21.10
2019-02-25T11:51:27.513Z,20.55
2019-02-25T11:52:31.816Z,21.12
2019-02-25T11:53:36.057Z,20.62
2019-02-25T11:54:40.326Z,20.50
2019-02-25T11:55:44.568Z,19.67
2019-02-25T11:56:48.843Z,19.62
2019-02-25T11:57:53.164Z,20.30
2019-02-25T11:58:57.419Z,20.23
2019-02-25T12:00:01.666Z,20.48
2019-02-25T12:01:06.067Z,21.17
2019-02-25T12:02:10.386Z,20.33
2019-02-25T12:03:14.667Z,20.67
2019-02-25T12:04:18.923Z,20.02
2019-02-25T12:05:23.315Z,19.65
2019-02-25T12:06:27.574Z,20.23
2019-02-25T12:07:31.855Z,20.50
2019-02-25T12:08:36.102Z,21.37
2019-02-25T12:09:40.362Z,19.63
2019-02-25T12:10:44.633Z,19.40
2019-02-25T12:11:48.947Z,20.77
2019-02-25T12:12:53.210Z,20.35
2019-02-25T12:13:57.454Z,20.83
2019-02-25T12:15:01.702Z,19.05
2019-02-25T12:16:06.034Z,20.13
2019-02-25T12:17:10.287Z,19.73
2019-02-25T12:18:14.546Z,20.47
2019-02-25T12:19:18.787Z,19.23
2019-02-25T12:20:23.037Z,19.73
2019-02-25T12:21:27.286Z,19.27
2019-02-25T12:22:31.542Z,19.10
2019-02-25T12:23:35.798Z,19.30
2019-02-25T12:24:40.051Z,19.80
2019-02-25T12:25:44.299Z,19.80
2019-02-25T12:26:48.550Z,20.53
2019-02-25T12:27:52.814Z,20.30
2019-02-25T12:28:57.071Z,20.33
2019-02-25T12:30:01.319Z,19.67
2019-02-25T12:31:05.832Z,19.33
2019-02-25T12:32:10.083Z,19.60
2019-02-25T12:33:14.366Z,19.57
2019-02-25T12:34:18.671Z,20.63
2019-02-25T12:35:23.179Z,19.17
2019-02-25T12:36:27.439Z,20.17
2019-02-25T12:37:31.681Z,19.80
2019-02-25T12:38:35.939Z,20.00
2019-02-25T12:39:40.196Z,19.67
2019-02-25T12:40:44.442Z,19.70
2019-02-25T12:41:48.690Z,19.42
2019-02-25T12:42:52.942Z,20.93
2019-02-25T12:43:57.278Z,20.37
2019-02-25T12:45:01.569Z,18.83
2019-02-25T12:46:05.814Z,19.47
2019-02-25T12:47:10.072Z,19.90
2019-02-25T12:48:14.324Z,20.17
2019-02-25T12:49:18.583Z,19.47
2019-02-25T12:50:22.923Z,20.62
2019-02-25T12:51:27.447Z,19.47
2019-02-25T12:52:31.767Z,19.50
2019-02-25T12:53:37.781Z,19.73
2019-02-25T12:54:42.156Z,20.70
2019-02-25T12:55:46.406Z,20.30
2019-02-25T12:56:50.668Z,19.60
2019-02-25T12:57:54.993Z,20.70
2019-02-25T12:58:59.266Z,19.70
2019-02-25T13:00:04.263Z,19.83
2019-02-25T13:01:08.510Z,19.60
2019-02-25T13:02:12.766Z,18.77
2019-02-25T13:03:17.023Z,19.27
2019-02-25T13:04:21.275Z,19.03
2019-02-25T13:05:25.540Z,18.97
2019-02-25T13:06:29.796Z,18.53
2019-02-25T13:07:34.064Z,19.30
2019-02-25T13:08:38.384Z,19.53
2019-02-25T13:09:42.708Z,19.30
2019-02-25T13:10:46.954Z,19.60
2019-02-25T13:11:51.220Z,18.90
2019-02-25T13:12:55.471Z,20.27
2019-02-25T13:13:59.950Z,19.10
2019-02-25T13:15:13.162Z,19.50
2019-02-25T13:16:10.879Z,19.67
2019-02-25T13:17:15.142Z,18.70
2019-02-25T13:18:19.453Z,19.97
2019-02-25T13:19:23.758Z,19.53
2019-02-25T13:20:28.023Z,19.37
2019-02-25T13:21:32.267Z,19.63
2019-02-25T13:22:36.514Z,18.93
2019-02-25T13:23:40.776Z,19.53
2019-02-25T13:24:45.048Z,18.40
2019-02-25T13:25:49.291Z,20.43
2019-02-25T13:26:53.546Z,20.00
2019-02-25T13:27:58.752Z,19.30
2019-02-25T13:29:03.804Z,19.30
2019-02-25T13:30:10.873Z,18.37
2019-02-25T13:31:15.200Z,18.87
2019-02-25T13:32:19.450Z,18.47
2019-02-25T13:33:23.893Z,19.53
2019-02-25T13:34:28.226Z,18.87
2019-02-25T13:35:32.471Z,19.30
2019-02-25T13:36:36.723Z,18.20
2019-02-25T13:37:41.046Z,19.23
2019-02-25T13:38:45.323Z,18.37
2019-02-25T13:39:49.627Z,18.97
2019-02-25T13:40:53.948Z,19.10
2019-02-25T13:41:58.262Z,17.93
2019-02-25T13:43:02.595Z,18.87
2019-02-25T13:44:06.939Z,19.20
2019-02-25T13:45:12.150Z,19.13
2019-02-25T13:46:16.471Z,19.53
2019-02-25T13:47:20.726Z,18.70
2019-02-25T13:48:25.242Z,18.33
2019-02-25T13:49:29.604Z,19.17
2019-02-25T13:50:33.923Z,18.77
2019-02-25T13:51:38.251Z,19.20
2019-02-25T13:52:48.193Z,18.57
2019-02-25T13:53:48.430Z,18.40
2019-02-25T13:54:52.762Z,18.37
2019-02-25T13:55:57.092Z,18.90
2019-02-25T13:57:01.422Z,17.87
2019-02-25T13:58:05.826Z,18.03
2019-02-25T13:59:10.100Z,18.63
2019-02-25T14:00:16.680Z,18.37
2019-02-25T14:01:21.096Z,17.30
2019-02-25T14:02:25.614Z,17.00
2019-02-25T14:03:29.955Z,18.83
2019-02-25T14:04:34.219Z,17.73
2019-02-25T14:05:38.546Z,17.87
2019-02-25T14:06:42.798Z,18.63
2019-02-25T14:07:47.217Z,18.17
2019-02-25T14:08:51.540Z,17.80
2019-02-25T14:09:55.943Z,17.93
2019-02-25T14:11:00.196Z,17.53
2019-02-25T14:12:04.590Z,18.33
2019-02-25T14:13:08.946Z,18.70